Gilbert Plains, Canada
Current Conditions -  °F | °C
As of 2:50 AM on Sunday 23 Nov 2014 (Local Time) from CYQV Reporting Station
Light Snow Light Snow  
Wind Chill: -3°   Ceiling: 800
Heat Index: 14°   Visibility: 0.75mi
Dew Point: 10°   Wind: 17mph
Humidity: 86%   Direction: 10°N
Pressure: 29.36"   Gusts: NA
Location:  51.13°N, 100.48°W
Report Text: CYQV 230850Z AUTO 01015KT 3/4SM -SN VV008 M10/M12 A2936 RMK PCPN 0.8MM PAST HR SLP974
Loading
Personal Weather Stations






























Interactive Weather Map New forecast layout! Learn more

10-Day Weather Forecast

Advertisements
Track Severe Weather on mobile